Time;durP1;ratioP1;P1;durP2;ratioP2;P2;SDS_P1;SDS_P2;PMS_P1;PMS_P2;Temp;Humidity;BMP_temperature;BMP_pressure;BME280_temperature;BME280_humidity;BME280_pressure;Samples;Min_cycle;Max_cycle;Signal;HPM_P1;HPM_P2
2022/07/25 00:01:26;;;;;;;16.58;15.20;;;;;;;22.89;72.95;92954.59;5070794;28;20236;-67
2022/07/25 00:03:51;;;;;;;15.82;14.45;;;;;;;22.75;73.27;92951.59;5070988;28;20199;-66
2022/07/25 00:06:16;;;;;;;16.02;14.52;;;;;;;22.77;73.89;92955.44;5070699;28;20250;-67
2022/07/25 00:08:42;;;;;;;16.10;14.60;;;;;;;22.82;73.96;92957.84;5070601;28;20201;-66
2022/07/25 00:11:07;;;;;;;14.75;13.27;;;;;;;22.82;73.60;92952.53;5070501;28;20232;-67
2022/07/25 00:13:32;;;;;;;15.32;14.02;;;;;;;22.71;73.78;92948.09;5070498;28;21015;-66
2022/07/25 00:15:58;;;;;;;16.10;14.80;;;;;;;22.75;73.50;92938.28;5070340;28;20224;-67
2022/07/25 00:18:23;;;;;;;14.80;13.63;;;;;;;22.81;73.41;92951.00;5070663;28;20173;-66
2022/07/25 00:20:49;;;;;;;15.38;14.05;;;;;;;22.81;72.91;92960.88;5069995;28;20235;-66
2022/07/25 00:23:14;;;;;;;16.48;15.00;;;;;;;22.87;71.72;92956.81;5070006;28;20203;-66
2022/07/25 00:25:40;;;;;;;15.60;14.27;;;;;;;22.91;72.20;92949.69;5069324;28;20777;-66
2022/07/25 00:28:05;;;;;;;15.60;14.32;;;;;;;22.91;72.17;92949.69;5066928;28;20255;-68
2022/07/25 00:30:30;;;;;;;15.23;14.02;;;;;;;22.82;71.80;92947.22;5069634;28;20278;-67
2022/07/25 00:32:56;;;;;;;15.63;14.13;;;;;;;22.78;70.40;92945.59;5068968;28;20196;-67
2022/07/25 00:35:21;;;;;;;15.20;14.10;;;;;;;22.83;71.24;92935.47;5069778;28;20206;-67
2022/07/25 00:37:46;;;;;;;16.50;14.90;;;;;;;22.84;71.20;92936.22;5068849;28;20224;-68
2022/07/25 00:40:12;;;;;;;15.88;14.57;;;;;;;22.80;71.79;92928.13;5070530;28;20201;-66
2022/07/25 00:42:37;;;;;;;16.17;14.82;;;;;;;22.70;72.82;92927.91;5069094;28;20243;-67
2022/07/25 00:45:04;;;;;;;15.30;13.60;;;;;;;22.74;72.00;92932.19;5070672;28;20196;-67
2022/07/25 00:47:29;;;;;;;15.15;13.82;;;;;;;22.48;71.89;92929.25;5069894;28;20215;-67
2022/07/25 00:49:54;;;;;;;14.07;12.88;;;;;;;22.52;72.21;92926.72;5070443;28;20212;-66
2022/07/25 00:52:20;;;;;;;15.32;14.07;;;;;;;22.64;72.42;92938.03;5069721;28;20225;-69
2022/07/25 00:54:45;;;;;;;14.63;13.40;;;;;;;22.65;72.23;92931.59;5070192;28;20214;-67
2022/07/25 00:57:11;;;;;;;16.17;14.65;;;;;;;22.62;72.82;92932.28;5069963;28;20219;-67
2022/07/25 00:59:36;;;;;;;14.98;13.77;;;;;;;22.49;74.00;92922.81;5070109;28;20234;-67
2022/07/25 01:02:02;;;;;;;15.65;14.23;;;;;;;22.42;75.38;92927.97;5069703;28;20808;-67
2022/07/25 01:04:27;;;;;;;15.95;14.57;;;;;;;22.53;74.81;92926.38;5069556;28;20191;-67
2022/07/25 01:06:53;;;;;;;14.77;13.50;;;;;;;22.35;75.65;92933.09;5068382;28;20226;-67
2022/07/25 01:09:19;;;;;;;15.93;14.43;;;;;;;22.31;75.30;92932.25;5070015;28;20202;-67
2022/07/25 01:11:45;;;;;;;15.10;13.88;;;;;;;22.19;76.30;92924.34;5069001;28;20233;-67
2022/07/25 01:14:10;;;;;;;15.15;13.68;;;;;;;22.24;75.93;92943.47;5094555;28;20188;-67
2022/07/25 01:16:36;;;;;;;14.48;13.13;;;;;;;22.20;75.86;92920.56;5069082;28;20228;-66
2022/07/25 01:19:01;;;;;;;14.85;13.35;;;;;;;22.42;75.12;92938.59;5068351;28;20271;-67
2022/07/25 01:21:27;;;;;;;15.70;14.30;;;;;;;22.44;74.36;92938.25;5069424;28;20230;-67
2022/07/25 01:23:52;;;;;;;15.77;14.35;;;;;;;22.36;75.04;92939.97;5069655;28;20199;-66
2022/07/25 01:26:17;;;;;;;15.07;13.80;;;;;;;22.48;74.90;92936.44;5068896;28;20219;-68
2022/07/25 01:28:43;;;;;;;15.63;14.13;;;;;;;22.40;75.03;92943.50;5069474;28;20314;-67
2022/07/25 01:31:08;;;;;;;15.35;14.05;;;;;;;22.29;75.41;92934.47;5069022;28;20254;-67
2022/07/25 01:33:34;;;;;;;15.30;13.05;;;;;;;22.42;74.88;92943.94;5069835;28;20188;-67
2022/07/25 01:35:59;;;;;;;15.30;14.00;;;;;;;22.32;75.21;92933.78;5068987;28;20223;-67
2022/07/25 01:38:25;;;;;;;15.77;13.50;;;;;;;22.14;75.71;92928.03;5069307;28;20199;-67
2022/07/25 01:40:50;;;;;;;15.70;14.00;;;;;;;22.29;75.61;92929.16;5069096;28;20239;-67
2022/07/25 01:43:16;;;;;;;16.27;14.82;;;;;;;22.34;75.03;92931.56;5069086;28;20609;-68
2022/07/25 01:45:41;;;;;;;16.00;14.50;;;;;;;22.26;75.91;92918.44;5071951;28;20188;-67
2022/07/25 01:48:07;;;;;;;15.80;14.20;;;;;;;22.29;75.31;92921.16;5073193;28;20209;-68
2022/07/25 01:50:32;;;;;;;15.40;13.80;;;;;;;22.20;75.62;92929.31;5073760;28;20191;-68
2022/07/25 01:52:58;;;;;;;14.98;13.55;;;;;;;22.23;75.92;92930.53;5071964;28;20175;-67
2022/07/25 01:55:23;;;;;;;15.98;14.38;;;;;;;22.31;75.78;92934.91;5072200;28;20212;-67
2022/07/25 01:57:48;;;;;;;17.60;15.50;;;;;;;22.37;75.28;92941.50;5072430;28;20283;-67
2022/07/25 02:00:15;;;;;;;16.02;14.52;;;;;;;22.16;75.85;92933.03;5072602;28;20178;-68
2022/07/25 02:02:41;;;;;;;16.30;14.43;;;;;;;22.23;75.25;92941.16;5072473;28;20225;-67
2022/07/25 02:05:08;;;;;;;15.52;13.88;;;;;;;22.21;73.77;92928.19;5073304;28;20192;-67
2022/07/25 02:07:34;;;;;;;16.02;14.63;;;;;;;22.20;74.58;92933.88;5072726;28;20243;-66
2022/07/25 02:10:00;;;;;;;15.27;13.50;;;;;;;22.20;73.00;92928.53;5073005;28;20208;-67
2022/07/25 02:12:26;;;;;;;14.23;13.00;;;;;;;22.11;70.46;92930.59;5072621;28;20238;-67
2022/07/25 02:14:51;;;;;;;15.38;13.73;;;;;;;22.31;67.88;92940.22;5071728;28;20187;-67
2022/07/25 02:17:17;;;;;;;14.48;13.15;;;;;;;22.37;68.61;92935.44;5072451;28;20216;-67
2022/07/25 02:19:43;;;;;;;15.90;14.45;;;;;;;22.40;68.21;92932.84;5071779;28;20180;-66
2022/07/25 02:22:08;;;;;;;13.48;12.45;;;;;;;22.34;70.18;92939.53;5072905;28;20293;-67
2022/07/25 02:24:35;;;;;;;14.32;13.13;;;;;;;22.21;68.96;92943.41;5072784;28;20195;-67
2022/07/25 02:27:02;;;;;;;14.00;12.80;;;;;;;22.16;70.36;92939.09;5071959;28;20319;-67
2022/07/25 02:29:27;;;;;;;14.90;13.50;;;;;;;22.43;69.61;92942.81;5070534;28;20226;-67
2022/07/25 02:31:52;;;;;;;13.55;12.50;;;;;;;22.12;71.15;92943.56;5069950;28;20283;-67
2022/07/25 02:34:18;;;;;;;14.70;13.43;;;;;;;22.02;71.92;92946.69;5072433;28;20209;-67
2022/07/25 02:36:44;;;;;;;13.35;12.18;;;;;;;21.90;72.05;92944.09;5072407;28;20225;-68
2022/07/25 02:39:10;;;;;;;15.05;13.65;;;;;;;21.80;72.74;92944.63;5072595;28;20191;-67
2022/07/25 02:41:35;;;;;;;13.82;12.60;;;;;;;21.77;73.63;92936.53;5072470;28;20239;-67
2022/07/25 02:44:00;;;;;;;13.35;12.23;;;;;;;21.68;74.24;92939.28;5072584;28;20202;-69
2022/07/25 02:46:26;;;;;;;15.35;13.95;;;;;;;21.67;74.58;92936.97;5072056;28;20231;-67
2022/07/25 02:48:51;;;;;;;16.13;13.25;;;;;;;21.52;75.23;92935.03;5072489;28;20257;-67
2022/07/25 02:51:17;;;;;;;18.55;14.82;;;;;;;21.52;75.80;92941.16;5072230;28;20230;-68
2022/07/25 02:53:43;;;;;;;14.93;13.63;;;;;;;21.61;75.06;92938.34;5072446;28;20210;-67
2022/07/25 02:56:08;;;;;;;15.57;14.10;;;;;;;21.56;75.37;92938.56;5070827;28;20237;-67
2022/07/25 02:58:34;;;;;;;15.20;13.70;;;;;;;21.46;75.77;92933.75;5072196;28;20271;-68
2022/07/25 03:00:59;;;;;;;14.65;13.25;;;;;;;21.38;74.76;92938.09;5071895;28;20805;-67
2022/07/25 03:03:24;;;;;;;14.38;13.15;;;;;;;21.50;74.58;92939.91;5072221;28;20212;-68
2022/07/25 03:05:50;;;;;;;14.20;12.95;;;;;;;21.41;74.33;92929.44;5071865;28;20231;-68
2022/07/25 03:08:15;;;;;;;14.77;13.38;;;;;;;21.37;73.83;92935.78;5071922;28;20202;-68
2022/07/25 03:10:41;;;;;;;14.90;13.45;;;;;;;21.42;73.04;92943.47;5071916;28;20267;-67
2022/07/25 03:13:06;;;;;;;13.43;12.32;;;;;;;21.37;73.94;92935.78;5071899;28;20175;-67
2022/07/25 03:15:32;;;;;;;13.52;12.40;;;;;;;21.32;74.27;92938.66;5072242;28;20242;-67
2022/07/25 03:17:57;;;;;;;14.63;12.73;;;;;;;21.37;74.55;92941.09;5071623;28;20195;-67
2022/07/25 03:20:22;;;;;;;14.15;12.95;;;;;;;21.33;74.16;92937.53;5072494;28;20193;-66
2022/07/25 03:22:48;;;;;;;14.10;12.90;;;;;;;21.28;74.62;92938.53;5071316;28;20227;-67
2022/07/25 03:25:14;;;;;;;14.88;13.45;;;;;;;21.22;73.18;92923.16;5070980;28;20187;-67
2022/07/25 03:27:39;;;;;;;15.18;13.80;;;;;;;21.30;73.54;92936.34;5071509;28;20230;-67
2022/07/25 03:30:05;;;;;;;13.88;12.73;;;;;;;21.31;73.88;92939.78;5072105;28;20221;-67
2022/07/25 03:32:30;;;;;;;14.00;12.52;;;;;;;21.27;73.45;92944.97;5070312;28;20219;-69
2022/07/25 03:34:56;;;;;;;14.05;12.63;;;;;;;21.38;72.72;92946.06;5071618;28;20187;-67
2022/07/25 03:37:21;;;;;;;14.38;12.98;;;;;;;21.38;71.98;92943.41;5071148;28;20843;-67
2022/07/25 03:39:47;;;;;;;14.45;13.00;;;;;;;21.50;71.01;92942.56;5071629;28;20191;-67
2022/07/25 03:42:12;;;;;;;13.43;12.13;;;;;;;21.49;70.73;92939.16;5071245;28;20215;-67
2022/07/25 03:44:38;;;;;;;14.23;13.10;;;;;;;21.46;71.04;92917.81;5071315;28;20592;-67
2022/07/25 03:47:04;;;;;;;13.77;12.43;;;;;;;21.61;71.34;92938.34;5070918;28;20246;-67
2022/07/25 03:49:30;;;;;;;13.82;12.73;;;;;;;21.59;71.57;92943.19;5071046;28;20205;-67
2022/07/25 03:51:55;;;;;;;13.15;11.88;;;;;;;21.65;70.48;92941.88;5071083;28;20258;-67
2022/07/25 03:54:21;;;;;;;16.40;12.63;;;;;;;21.66;69.19;92946.06;5071126;28;20247;-67
2022/07/25 03:56:48;;;;;;;13.57;12.38;;;;;;;21.87;68.59;92949.31;5070866;28;20252;-67
2022/07/25 03:59:16;;;;;;;13.32;12.20;;;;;;;22.00;69.05;92950.81;5070281;28;20243;-67
2022/07/25 04:01:43;;;;;;;13.70;12.52;;;;;;;22.20;66.79;92957.81;5070810;28;20236;-67
2022/07/25 04:04:09;;;;;;;13.90;12.88;;;;;;;21.94;68.89;92944.22;5070492;28;20196;-67
2022/07/25 04:06:36;;;;;;;13.45;12.25;;;;;;;22.03;68.55;92945.59;5070464;28;20303;-66
2022/07/25 04:09:01;;;;;;;13.07;11.98;;;;;;;22.21;69.11;92960.13;5069644;28;20220;-68
2022/07/25 04:11:28;;;;;;;13.80;12.55;;;;;;;22.45;68.03;92958.44;5070319;28;20234;-67
2022/07/25 04:13:53;;;;;;;14.40;13.18;;;;;;;22.71;66.97;92961.41;5070621;28;20184;-67
2022/07/25 04:16:19;;;;;;;14.60;13.07;;;;;;;22.73;67.23;92954.59;5070275;28;20230;-68
2022/07/25 04:18:44;;;;;;;14.75;13.18;;;;;;;22.94;66.57;92949.75;5070563;28;20198;-67
2022/07/25 04:21:10;;;;;;;14.32;13.10;;;;;;;22.96;65.67;92941.44;5070596;28;20227;-67
2022/07/25 04:23:35;;;;;;;14.23;12.95;;;;;;;23.17;66.24;92950.69;5070392;28;20193;-69
2022/07/25 04:26:01;;;;;;;14.20;12.90;;;;;;;23.28;64.69;92956.28;5070073;28;20242;-67
2022/07/25 04:28:27;;;;;;;14.48;13.05;;;;;;;23.25;65.77;92951.63;5070267;28;20242;-67
2022/07/25 04:30:53;;;;;;;13.82;12.63;;;;;;;23.39;65.01;92949.28;5069591;28;20387;-67
2022/07/25 04:33:20;;;;;;;14.52;13.32;;;;;;;23.42;63.81;92951.25;5065740;28;20196;-68
2022/07/25 04:35:45;;;;;;;13.75;12.57;;;;;;;23.44;61.78;92949.75;5068600;28;20192;-67
2022/07/25 04:38:11;;;;;;;13.65;12.45;;;;;;;23.83;61.47;92947.88;5070018;28;20202;-67
2022/07/25 04:40:37;;;;;;;12.48;11.48;;;;;;;23.83;61.83;92947.13;5069446;28;20250;-67
2022/07/25 04:43:03;;;;;;;14.07;12.68;;;;;;;23.46;60.26;92906.78;5069693;28;20256;-67
2022/07/25 04:45:29;;;;;;;14.77;12.75;;;;;;;24.00;59.63;92946.72;5069823;28;20179;-72
2022/07/25 04:47:55;;;;;;;12.63;11.68;;;;;;;24.20;59.47;92940.22;5069544;28;20203;-70
2022/07/25 04:50:21;;;;;;;13.05;11.65;;;;;;;24.43;59.65;92949.03;5068206;28;20179;-69
2022/07/25 04:52:46;;;;;;;13.90;12.50;;;;;;;24.66;58.07;92947.94;5069564;28;20234;-71
2022/07/25 04:55:11;;;;;;;14.05;12.75;;;;;;;24.57;57.74;92950.03;5070080;28;20185;-69
2022/07/25 04:57:37;;;;;;;12.27;11.35;;;;;;;24.58;57.81;92940.13;5066607;28;20219;-71
2022/07/25 05:00:08;;;;;;;13.27;12.27;;;;;;;24.71;56.74;92954.88;5070278;28;20206;-71
2022/07/25 05:02:34;;;;;;;12.75;11.65;;;;;;;24.63;56.33;92955.84;5069547;28;20255;-71
2022/07/25 05:04:59;;;;;;;13.18;12.27;;;;;;;24.30;56.04;92952.97;5069617;28;21046;-69
2022/07/25 05:07:25;;;;;;;14.52;13.32;;;;;;;24.61;56.21;92952.75;5069457;28;20306;-70
2022/07/25 05:09:50;;;;;;;12.93;12.02;;;;;;;24.67;55.90;92917.41;5069808;28;20211;-70
2022/07/25 05:12:16;;;;;;;14.20;12.85;;;;;;;25.24;54.37;92932.41;5069368;28;20620;-70
2022/07/25 05:14:41;;;;;;;14.43;12.98;;;;;;;25.38;53.72;92955.91;5069155;28;20191;-69
2022/07/25 05:17:06;;;;;;;13.75;12.60;;;;;;;25.68;53.28;92960.16;5067146;28;20224;-70
2022/07/25 05:19:32;;;;;;;13.05;11.82;;;;;;;25.54;53.02;92951.94;5067127;28;20193;-71
2022/07/25 05:21:57;;;;;;;13.43;11.68;;;;;;;25.68;53.23;92954.03;5056882;28;20213;-69
2022/07/25 05:24:23;;;;;;;12.23;11.23;;;;;;;25.53;53.07;92962.97;5048686;28;20190;-68
2022/07/25 05:26:49;;;;;;;12.77;11.68;;;;;;;25.70;53.25;92973.91;5049017;28;20217;-71
2022/07/25 05:29:14;;;;;;;13.10;11.95;;;;;;;25.41;53.36;92965.88;5045914;28;20222;-70
2022/07/25 05:31:41;;;;;;;12.70;11.65;;;;;;;26.21;51.94;92982.22;5066771;28;20490;-72
2022/07/25 05:34:07;;;;;;;12.57;11.48;;;;;;;26.37;52.04;92978.19;5069379;28;20208;-71
2022/07/25 05:36:33;;;;;;;11.88;10.98;;;;;;;26.26;50.25;92985.34;5064506;28;20232;-70
2022/07/25 05:38:58;;;;;;;11.77;10.68;;;;;;;26.09;51.53;92977.09;5067291;28;20185;-70
2022/07/25 05:41:24;;;;;;;12.60;11.40;;;;;;;25.78;51.76;92975.56;5073082;28;20228;-69
2022/07/25 05:43:49;;;;;;;12.43;11.52;;;;;;;26.17;51.08;92966.13;5088185;28;20244;-71
2022/07/25 05:46:15;;;;;;;12.55;11.43;;;;;;;26.08;50.55;92962.97;5087488;28;20323;-71
2022/07/25 05:48:41;;;;;;;12.70;11.65;;;;;;;25.93;51.08;92966.56;5087101;28;20219;-71
2022/07/25 05:51:07;;;;;;;12.82;11.82;;;;;;;26.72;49.86;92962.47;5088131;28;20258;-70
2022/07/25 05:53:33;;;;;;;11.63;10.63;;;;;;;28.50;45.17;92969.28;5088354;28;20178;-71
2022/07/25 05:55:59;;;;;;;11.55;10.45;;;;;;;29.89;41.54;92966.19;5087659;28;20224;-69
2022/07/25 05:58:24;;;;;;;12.48;11.18;;;;;;;32.78;35.27;92970.78;5088334;28;20209;-69
2022/07/25 06:00:50;;;;;;;10.88;10.07;;;;;;;33.74;33.26;92971.59;5087685;28;20232;-70
2022/07/25 06:03:17;;;;;;;10.90;9.98;;;;;;;33.33;33.97;92965.69;5087574;28;20218;-71
2022/07/25 06:05:42;;;;;;;11.60;10.70;;;;;;;35.58;29.76;92978.94;5087158;28;20217;-70
2022/07/25 06:08:08;;;;;;;11.50;10.38;;;;;;;35.84;30.17;92977.16;5088418;28;20191;-71
2022/07/25 06:10:34;;;;;;;12.13;11.02;;;;;;;35.50;30.19;92977.63;5087164;28;20197;-71
2022/07/25 06:12:59;;;;;;;11.20;9.98;;;;;;;36.05;28.91;92982.03;5088510;28;20181;-71
2022/07/25 06:15:24;;;;;;;11.57;10.65;;;;;;;37.13;28.07;92982.06;5087203;28;20200;-70
2022/07/25 06:17:50;;;;;;;13.75;12.48;;;;;;;37.26;27.05;92980.91;5085072;28;20227;-71
2022/07/25 06:20:15;;;;;;;10.55;9.63;;;;;;;36.65;28.18;92972.22;5081940;28;20260;-71
2022/07/25 06:22:40;;;;;;;10.40;9.60;;;;;;;36.32;28.18;92984.44;5087705;28;20212;-71
2022/07/25 06:25:07;;;;;;;10.65;9.75;;;;;;;37.24;27.53;92982.53;5087388;28;20192;-70
2022/07/25 06:27:32;;;;;;;9.43;8.73;;;;;;;38.36;25.86;92990.47;5087232;28;20244;-71
2022/07/25 06:29:57;;;;;;;11.10;10.20;;;;;;;38.91;25.28;92988.09;5088109;28;20219;-70
2022/07/25 06:32:23;;;;;;;10.95;10.15;;;;;;;35.13;29.51;92982.75;5089034;28;20228;-71
2022/07/25 06:34:48;;;;;;;11.43;10.13;;;;;;;36.97;27.29;92991.88;5091016;28;20180;-71
2022/07/25 06:37:14;;;;;;;10.30;9.23;;;;;;;37.88;26.77;92993.69;5091253;28;20235;-72
2022/07/25 06:39:40;;;;;;;10.32;9.50;;;;;;;37.53;25.98;92989.38;5091922;28;20181;-73
2022/07/25 06:42:05;;;;;;;10.88;9.93;;;;;;;36.99;27.69;92984.03;5087305;28;20220;-72
2022/07/25 06:44:32;;;;;;;11.10;10.10;;;;;;;35.63;29.05;92985.06;5091272;28;20216;-71
2022/07/25 06:46:59;;;;;;;11.32;10.27;;;;;;;31.38;35.31;92973.13;5090393;28;20225;-71
2022/07/25 06:49:24;;;;;;;11.63;10.63;;;;;;;30.55;38.36;92965.19;5091449;28;20239;-71
2022/07/25 06:51:49;;;;;;;12.18;11.18;;;;;;;29.29;41.19;92956.31;5090926;28;20242;-72
2022/07/25 06:54:17;;;;;;;11.85;10.85;;;;;;;28.13;43.67;92950.75;5091163;28;20256;-72
2022/07/25 06:56:43;;;;;;;12.45;11.40;;;;;;;28.40;43.89;92951.22;5088961;28;20219;-70
2022/07/25 06:59:08;;;;;;;12.70;11.45;;;;;;;28.23;43.67;92951.94;5087470;28;20180;-72
2022/07/25 07:01:34;;;;;;;12.80;11.68;;;;;;;27.68;45.59;92948.63;5090015;28;20224;-71
2022/07/25 07:03:59;;;;;;;11.38;10.45;;;;;;;27.78;45.10;92947.13;5090713;28;20195;-72
2022/07/25 07:06:25;;;;;;;12.75;11.32;;;;;;;27.47;45.50;92948.50;5089830;28;20255;-71
2022/07/25 07:08:50;;;;;;;12.68;11.57;;;;;;;26.95;46.03;92946.22;5090944;28;20210;-72
2022/07/25 07:11:15;;;;;;;13.30;12.07;;;;;;;27.14;46.13;92943.28;5089912;28;20228;-72
2022/07/25 07:13:41;;;;;;;13.68;12.55;;;;;;;27.11;46.40;92935.22;5091090;28;20193;-72
2022/07/25 07:16:07;;;;;;;13.18;11.88;;;;;;;27.06;46.55;92946.28;5090172;28;20285;-72
2022/07/25 07:18:32;;;;;;;12.57;11.50;;;;;;;27.16;45.16;92942.91;5090941;28;20188;-72
2022/07/25 07:20:57;;;;;;;11.07;10.25;;;;;;;27.30;45.18;92945.72;5090492;28;20235;-71
2022/07/25 07:23:23;;;;;;;13.05;11.88;;;;;;;26.83;46.18;92943.81;5091212;28;20189;-71
2022/07/25 07:25:48;;;;;;;12.70;11.65;;;;;;;27.51;44.74;92945.84;5088798;28;20320;-70
2022/07/25 07:28:15;;;;;;;12.68;11.68;;;;;;;27.23;45.82;92940.28;5090549;28;20224;-71
2022/07/25 07:30:41;;;;;;;13.32;12.07;;;;;;;27.16;44.83;92945.59;5090550;28;20197;-72
2022/07/25 07:33:07;;;;;;;12.50;11.43;;;;;;;27.59;44.03;92942.06;5090813;28;20185;-71
2022/07/25 07:35:32;;;;;;;13.00;11.75;;;;;;;27.32;46.04;92927.31;5089378;28;20192;-71
2022/07/25 07:37:57;;;;;;;12.30;11.35;;;;;;;27.65;45.24;92932.50;5088345;28;20186;-70
2022/07/25 07:40:25;;;;;;;13.52;12.23;;;;;;;27.54;43.65;92945.09;5089941;28;20370;-71
2022/07/25 07:42:51;;;;;;;13.05;11.85;;;;;;;27.85;44.15;92942.56;5087440;28;20213;-71
2022/07/25 07:45:19;;;;;;;13.35;11.93;;;;;;;27.64;43.88;92944.38;5089350;28;20206;-73
2022/07/25 07:47:47;;;;;;;11.77;10.80;;;;;;;27.62;42.71;92946.66;5089772;28;20231;-72
2022/07/25 07:50:14;;;;;;;13.63;12.43;;;;;;;26.92;44.40;92922.84;5089851;28;20204;-71
2022/07/25 07:52:40;;;;;;;12.13;11.13;;;;;;;27.43;43.27;92941.56;5088678;28;20220;-71
2022/07/25 07:57:50;;;;;;;13.32;12.13;;;;;;;27.09;42.91;92924.09;5089037;28;20232;-73
2022/07/25 08:00:16;;;;;;;12.35;11.25;;;;;;;27.52;42.71;92942.78;5090019;28;20188;-72
2022/07/25 08:02:47;;;;;;;12.63;11.50;;;;;;;27.33;43.66;92942.28;5088549;28;20273;-71
2022/07/25 08:05:19;;;;;;;12.90;11.77;;;;;;;27.37;43.91;92937.72;5089439;28;20185;-72
2022/07/25 08:07:44;;;;;;;12.23;10.68;;;;;;;27.47;42.82;92939.69;5088991;28;20288;-73
2022/07/25 08:10:09;;;;;;;12.23;11.13;;;;;;;27.36;43.46;92928.91;5089513;28;20208;-73
2022/07/25 08:12:39;;;;;;;12.55;11.20;;;;;;;27.54;42.50;92935.13;5089202;28;20224;-72
2022/07/25 08:15:05;;;;;;;11.25;10.27;;;;;;;27.62;42.09;92911.78;5087787;28;20248;-72
2022/07/25 08:17:31;;;;;;;11.68;10.85;;;;;;;27.15;42.48;92930.63;5089102;28;20219;-72
2022/07/25 08:19:56;;;;;;;11.55;10.45;;;;;;;27.39;43.33;92935.44;5090129;28;20189;-73
2022/07/25 08:22:21;;;;;;;13.40;12.20;;;;;;;27.45;42.90;92942.75;5073068;28;20281;-73
2022/07/25 08:24:47;;;;;;;13.77;12.50;;;;;;;27.62;41.89;92941.31;5068172;28;20266;-73
2022/07/25 08:27:12;;;;;;;12.48;11.38;;;;;;;27.82;39.82;92916.47;5082498;28;20228;-74
2022/07/25 08:29:37;;;;;;;12.00;11.10;;;;;;;27.90;41.08;92938.78;5088381;28;20285;-73
2022/07/25 08:32:03;;;;;;;11.63;10.73;;;;;;;27.90;41.48;92941.47;5084679;28;20221;-71
2022/07/25 08:34:29;;;;;;;11.07;10.18;;;;;;;27.86;40.24;92943.34;5088876;28;20184;-72
2022/07/25 08:36:54;;;;;;;11.07;10.18;;;;;;;27.52;39.16;92940.09;5088616;28;20292;-72
2022/07/25 08:39:19;;;;;;;11.60;10.68;;;;;;;27.53;40.44;92932.81;5089415;28;20185;-72
2022/07/25 08:41:45;;;;;;;13.77;12.48;;;;;;;27.52;40.17;92921.31;5087119;28;20228;-72
2022/07/25 08:44:13;;;;;;;11.52;10.55;;;;;;;27.94;40.28;92942.22;5089799;28;20173;-72
2022/07/25 08:46:40;;;;;;;11.30;10.32;;;;;;;28.04;39.78;92941.50;5089046;28;20216;-72
2022/07/25 08:49:07;;;;;;;12.52;11.40;;;;;;;28.03;39.94;92934.63;5087930;28;20234;-71
2022/07/25 08:51:33;;;;;;;10.73;9.90;;;;;;;28.11;38.80;92936.19;5090104;28;20292;-71
2022/07/25 08:53:59;;;;;;;10.65;9.75;;;;;;;28.06;38.71;92936.53;5089603;28;20188;-72
2022/07/25 08:56:25;;;;;;;12.00;11.00;;;;;;;28.28;38.32;92922.03;5089051;28;20236;-71
2022/07/25 08:58:50;;;;;;;11.35;10.50;;;;;;;28.09;39.96;92933.84;5089830;28;20189;-74
2022/07/25 09:01:16;;;;;;;12.20;11.20;;;;;;;27.86;40.53;92932.59;5087893;28;20246;-72
2022/07/25 09:03:42;;;;;;;12.20;11.00;;;;;;;28.08;40.38;92932.31;5089692;28;20211;-73
2022/07/25 09:06:18;;;;;;;12.93;10.27;;;;;;;28.15;39.60;92931.56;5089256;28;20240;-72
2022/07/25 09:08:58;;;;;;;12.18;11.07;;;;;;;28.41;39.45;92930.50;5089412;28;20220;-72
2022/07/25 09:11:30;;;;;;;12.02;11.13;;;;;;;28.89;39.44;92923.66;5077086;28;20283;-72
2022/07/25 09:13:57;;;;;;;11.45;10.65;;;;;;;28.89;39.10;92927.09;5062356;28;20191;-69
2022/07/25 09:16:34;;;;;;;11.15;10.23;;;;;;;28.25;39.01;92931.59;5060904;28;20224;-70
2022/07/25 09:19:14;;;;;;;11.60;10.77;;;;;;;27.87;39.04;92923.41;5069230;28;20211;-71
2022/07/25 09:21:41;;;;;;;11.88;10.70;;;;;;;28.14;39.15;92924.69;5076939;28;20707;-69
2022/07/25 09:24:15;;;;;;;12.07;10.98;;;;;;;28.58;38.78;92917.09;5087236;28;20193;-72
2022/07/25 09:26:58;;;;;;;12.25;11.18;;;;;;;28.23;38.55;92911.66;5087494;28;20219;-72
2022/07/25 09:29:25;;;;;;;11.13;10.02;;;;;;;27.98;39.43;92918.88;5088296;28;20294;-73
2022/07/25 09:31:52;;;;;;;12.15;11.05;;;;;;;28.38;38.27;92918.59;5088971;28;20230;-72
2022/07/25 09:34:38;;;;;;;13.57;12.18;;;;;;;28.20;38.52;92907.03;5087617;28;20184;-73
2022/07/25 09:37:07;;;;;;;11.15;10.25;;;;;;;28.10;39.66;92915.84;5088184;28;20232;-73
2022/07/25 09:39:53;;;;;;;12.30;11.25;;;;;;;28.06;40.31;92907.00;5087967;28;20203;-73
2022/07/25 09:42:25;;;;;;;12.60;11.50;;;;;;;28.48;37.90;92917.88;5085827;28;20226;-72
2022/07/25 09:44:57;;;;;;;13.20;11.98;;;;;;;28.72;38.88;92919.81;5087991;28;20211;-72
2022/07/25 09:47:22;;;;;;;12.25;11.13;;;;;;;29.05;38.70;92907.88;5087153;28;20229;-73
2022/07/25 09:49:48;;;;;;;14.00;11.60;;;;;;;29.11;37.32;92901.00;5088262;28;20218;-72
2022/07/25 09:52:13;;;;;;;13.60;12.20;;;;;;;29.04;37.03;92882.16;5087413;28;20232;-72
2022/07/25 09:54:39;;;;;;;12.10;11.02;;;;;;;28.73;37.57;92918.66;5088326;28;20259;-72
2022/07/25 09:57:05;;;;;;;11.75;10.75;;;;;;;28.45;38.50;92915.91;5075731;28;20232;-72
2022/07/25 09:59:33;;;;;;;11.90;10.80;;;;;;;28.90;39.13;92907.16;5068716;28;20195;-72
2022/07/25 10:02:08;;;;;;;12.48;10.65;;;;;;;28.93;37.79;92906.38;5080618;28;20871;-73
2022/07/25 10:04:53;;;;;;;11.88;10.80;;;;;;;28.73;38.12;92905.22;5088353;28;20199;-73
2022/07/25 10:07:21;;;;;;;12.40;11.23;;;;;;;29.66;35.09;92889.38;5075630;28;20236;-74
2022/07/25 10:09:50;;;;;;;11.55;10.55;;;;;;;29.80;35.43;92898.53;5070943;28;20210;-72
2022/07/25 10:12:20;;;;;;;13.93;12.02;;;;;;;29.07;37.54;92892.19;5086676;28;20306;-73
2022/07/25 10:15:12;;;;;;;12.15;11.05;;;;;;;28.79;38.35;92889.47;5091653;28;20279;-72
2022/07/25 10:17:39;;;;;;;11.77;10.57;;;;;;;28.37;38.72;92895.56;5092252;28;20232;-73
2022/07/25 10:20:07;;;;;;;11.52;10.43;;;;;;;28.00;38.33;92903.16;5092516;28;20187;-72
2022/07/25 10:22:41;;;;;;;11.57;10.57;;;;;;;27.99;38.56;92896.25;5091912;28;20734;-73
2022/07/25 10:25:18;;;;;;;11.82;10.77;;;;;;;27.99;39.38;92890.88;5092169;28;20188;-72
2022/07/25 10:27:49;;;;;;;12.30;11.30;;;;;;;27.81;39.69;92892.72;5091310;28;20248;-72
2022/07/25 10:30:23;;;;;;;12.80;11.52;;;;;;;28.19;39.58;92878.63;5092226;28;20199;-72
2022/07/25 10:32:54;;;;;;;12.27;11.27;;;;;;;27.92;39.01;92890.84;5090602;28;20220;-73
2022/07/25 10:35:20;;;;;;;12.73;11.60;;;;;;;27.96;39.63;92881.66;5090915;28;20208;-74
2022/07/25 10:37:46;;;;;;;12.85;11.75;;;;;;;28.34;38.40;92890.97;5090574;28;20224;-71
2022/07/25 10:40:24;;;;;;;12.20;11.10;;;;;;;28.46;39.12;92882.53;5089999;28;20198;-72
2022/07/25 10:42:50;;;;;;;13.90;11.60;;;;;;;28.27;38.17;92880.97;5090275;28;20268;-71
2022/07/25 10:45:18;;;;;;;13.35;11.98;;;;;;;28.49;38.19;92873.72;5089722;28;20185;-71
2022/07/25 10:47:54;;;;;;;12.43;11.10;;;;;;;28.68;36.94;92881.41;5090986;28;20219;-73
2022/07/25 10:50:22;;;;;;;11.60;10.70;;;;;;;29.16;36.41;92877.19;5091840;28;20199;-73
2022/07/25 10:52:58;;;;;;;12.50;11.52;;;;;;;29.32;37.22;92869.47;5092286;28;20254;-72
2022/07/25 10:55:24;;;;;;;11.82;10.82;;;;;;;29.07;35.10;92866.06;5091222;28;20857;-73
2022/07/25 10:58:05;;;;;;;10.98;10.18;;;;;;;29.56;35.86;92865.13;5091681;28;20284;-72
2022/07/25 11:00:32;;;;;;;11.02;10.23;;;;;;;29.40;35.33;92868.28;5091177;28;20181;-71
2022/07/25 11:02:58;;;;;;;11.85;10.43;;;;;;;29.47;36.18;92868.25;5091812;28;20177;-72
2022/07/25 11:05:23;;;;;;;11.20;10.25;;;;;;;28.36;37.83;92861.78;5091979;28;20181;-72
2022/07/25 11:07:51;;;;;;;11.75;10.77;;;;;;;28.98;36.59;92865.63;5091420;28;20230;-72
2022/07/25 11:10:24;;;;;;;11.10;10.13;;;;;;;29.21;36.75;92862.56;5090801;28;20217;-72
2022/07/25 11:12:50;;;;;;;11.40;10.25;;;;;;;29.12;35.28;92865.66;5090994;28;21243;-73
2022/07/25 11:15:20;;;;;;;12.00;11.00;;;;;;;28.92;36.19;92861.81;5090751;28;20246;-73
2022/07/25 11:17:50;;;;;;;11.73;10.80;;;;;;;29.02;36.85;92854.88;5087033;28;20239;-73